Time;durP1;ratioP1;P1;durP2;ratioP2;P2;SDS_P1;SDS_P2;PMS_P1;PMS_P2;Temp;Humidity;BMP_temperature;BMP_pressure;BME280_temperature;BME280_humidity;BME280_pressure;Samples;Min_cycle;Max_cycle;Signal;HPM_P1;HPM_P2
2022/07/19 00:02:12;;;;;;;4.60;1.92;;;;;;;17.15;53.56;97698.97;4986253;28;20039;-61
2022/07/19 00:04:39;;;;;;;4.68;2.10;;;;;;;17.14;53.50;97696.56;4986710;28;20057;-62
2022/07/19 00:07:06;;;;;;;5.82;1.88;;;;;;;17.16;53.54;97697.91;4985785;28;20410;-61
2022/07/19 00:09:32;;;;;;;5.30;2.03;;;;;;;17.08;53.98;97700.41;4986505;28;20046;-61
2022/07/19 00:11:59;;;;;;;4.82;1.88;;;;;;;17.16;53.54;97703.38;4985519;28;20042;-61
2022/07/19 00:14:25;;;;;;;4.80;1.90;;;;;;;17.10;53.75;97700.97;4986425;28;20046;-62
2022/07/19 00:16:52;;;;;;;3.40;1.60;;;;;;;17.23;53.29;97699.47;4986273;28;20489;-62
2022/07/19 00:19:19;;;;;;;3.88;2.17;;;;;;;17.44;52.19;97699.28;4985623;28;20058;-62
2022/07/19 00:21:45;;;;;;;3.33;1.70;;;;;;;17.61;51.32;97691.41;4985720;28;20065;-61
2022/07/19 00:24:12;;;;;;;4.55;1.95;;;;;;;17.60;51.58;97706.22;4985445;28;20046;-62
2022/07/19 00:26:38;;;;;;;8.82;2.13;;;;;;;17.49;52.88;97701.94;4984514;28;20045;-62
2022/07/19 00:29:05;;;;;;;4.82;2.08;;;;;;;17.02;55.40;97696.88;4986161;28;20524;-62
2022/07/19 00:31:32;;;;;;;5.57;2.40;;;;;;;17.00;53.31;97693.63;4985336;28;20089;-61
2022/07/19 00:33:59;;;;;;;3.97;1.85;;;;;;;17.13;53.65;97694.91;4986046;28;20050;-61
2022/07/19 00:36:25;;;;;;;6.90;2.03;;;;;;;17.24;52.77;97690.97;4985633;28;20050;-61
2022/07/19 00:38:52;;;;;;;5.53;2.15;;;;;;;17.35;52.56;97696.34;4985276;28;20046;-61
2022/07/19 00:41:18;;;;;;;4.32;1.92;;;;;;;17.52;52.29;97704.13;4986067;28;20046;-62
2022/07/19 00:43:45;;;;;;;5.15;1.88;;;;;;;17.41;52.58;97696.03;4988791;28;20096;-61
2022/07/19 00:46:15;;;;;;;5.60;2.13;;;;;;;17.44;52.90;97700.09;4989038;28;20510;-62
2022/07/19 00:48:42;;;;;;;5.00;2.40;;;;;;;17.46;53.23;97695.13;4989336;28;20070;-62
2022/07/19 00:51:11;;;;;;;5.03;2.33;;;;;;;16.96;55.09;97696.13;4988945;28;20100;-62
2022/07/19 00:53:39;;;;;;;4.45;2.05;;;;;;;16.64;55.78;97702.91;4989714;28;20065;-61
2022/07/19 00:56:07;;;;;;;3.53;2.15;;;;;;;16.66;55.63;97703.44;4988465;28;20050;-62
2022/07/19 00:58:35;;;;;;;6.90;2.10;;;;;;;16.69;55.66;97705.59;4989419;28;20125;-62
2022/07/19 01:01:04;;;;;;;6.55;2.45;;;;;;;16.45;56.78;97708.22;4988992;28;20042;-62
2022/07/19 01:03:35;;;;;;;8.35;2.20;;;;;;;16.43;56.51;97705.75;4989125;28;20756;-62
2022/07/19 01:06:03;;;;;;;5.47;2.38;;;;;;;16.44;56.56;97704.66;4988815;28;20076;-62
2022/07/19 01:08:29;;;;;;;4.82;2.33;;;;;;;16.44;56.76;97707.38;4989221;28;20042;-62
2022/07/19 01:10:56;;;;;;;4.20;2.22;;;;;;;16.55;56.25;97705.41;4988934;28;20049;-62
2022/07/19 01:13:23;;;;;;;5.35;2.22;;;;;;;16.61;55.96;97711.66;4989205;28;20042;-62
2022/07/19 01:15:49;;;;;;;5.05;2.42;;;;;;;16.69;55.73;97716.53;4988347;28;20104;-61
2022/07/19 01:18:16;;;;;;;4.80;2.00;;;;;;;16.62;56.13;97705.91;4969639;28;20665;-62
2022/07/19 01:20:43;;;;;;;3.50;1.90;;;;;;;16.66;55.53;97716.28;4981532;28;20046;-62
2022/07/19 01:23:10;;;;;;;5.22;1.90;;;;;;;16.48;56.67;97704.94;4988711;28;20050;-61
2022/07/19 01:25:37;;;;;;;5.10;2.17;;;;;;;16.37;57.18;97701.44;4988526;28;20065;-61
2022/07/19 01:28:06;;;;;;;4.65;2.17;;;;;;;16.23;57.39;97713.00;4988645;28;20128;-61
2022/07/19 01:30:33;;;;;;;6.00;2.10;;;;;;;16.15;57.82;97708.09;4988483;28;20061;-62
2022/07/19 01:33:00;;;;;;;6.20;2.07;;;;;;;16.21;57.64;97700.69;4988823;28;20034;-61
2022/07/19 01:35:28;;;;;;;4.68;2.13;;;;;;;16.17;57.42;97705.91;4988401;28;20035;-62
2022/07/19 01:37:55;;;;;;;4.32;2.40;;;;;;;16.14;57.76;97705.66;4988689;28;20050;-62
2022/07/19 01:40:23;;;;;;;5.20;2.30;;;;;;;16.09;58.08;97709.22;4988616;28;20348;-62
2022/07/19 01:42:50;;;;;;;4.40;2.25;;;;;;;16.06;58.25;97707.03;4988420;28;20046;-62
2022/07/19 01:45:18;;;;;;;4.93;2.10;;;;;;;16.13;57.71;97704.81;4987882;28;20050;-62
2022/07/19 01:47:45;;;;;;;4.88;2.67;;;;;;;16.23;57.21;97706.69;4987059;28;20329;-62
2022/07/19 01:50:14;;;;;;;4.80;2.20;;;;;;;16.25;57.21;97705.31;4988695;28;20089;-61
2022/07/19 01:52:40;;;;;;;8.98;2.28;;;;;;;16.27;57.28;97704.22;4988133;28;20042;-62
2022/07/19 01:55:15;;;;;;;4.68;2.00;;;;;;;16.09;57.92;97709.22;4980848;28;20039;-62
2022/07/19 01:57:41;;;;;;;4.70;2.20;;;;;;;15.84;59.24;97709.00;4987994;28;20050;-62
2022/07/19 02:00:08;;;;;;;4.82;2.30;;;;;;;15.89;58.73;97707.34;4987298;28;20513;-61
2022/07/19 02:02:38;;;;;;;4.53;2.13;;;;;;;15.98;58.37;97701.06;4988899;28;20156;-62
2022/07/19 02:05:06;;;;;;;4.90;2.55;;;;;;;16.07;57.88;97703.22;4974400;28;20626;-62
2022/07/19 02:07:36;;;;;;;3.72;2.15;;;;;;;16.05;58.29;97703.50;4987734;28;20097;-61
2022/07/19 02:10:04;;;;;;;4.88;2.33;;;;;;;15.89;58.96;97705.44;4987911;28;20039;-61
2022/07/19 02:12:31;;;;;;;4.75;2.28;;;;;;;15.67;59.67;97698.41;4986940;28;20461;-62
2022/07/19 02:14:57;;;;;;;4.82;2.10;;;;;;;15.64;59.82;97690.78;4987089;28;20042;-62
2022/07/19 02:17:24;;;;;;;5.45;2.72;;;;;;;15.68;59.73;97688.31;4987763;28;20045;-62
2022/07/19 02:19:50;;;;;;;4.50;2.22;;;;;;;15.46;60.66;97689.47;4987554;28;20097;-62
2022/07/19 02:22:17;;;;;;;4.63;2.45;;;;;;;15.44;61.02;97688.94;4988250;28;20038;-62
2022/07/19 02:24:43;;;;;;;5.22;2.22;;;;;;;15.36;61.32;97687.56;4987001;28;20053;-63
2022/07/19 02:27:11;;;;;;;4.82;2.25;;;;;;;15.46;60.46;97690.28;4987883;28;20046;-62
2022/07/19 02:29:38;;;;;;;4.07;2.45;;;;;;;15.63;60.26;97685.59;4987383;28;20105;-62
2022/07/19 02:32:05;;;;;;;5.05;2.22;;;;;;;15.37;61.12;97683.72;4986741;28;20054;-61
2022/07/19 02:34:33;;;;;;;4.53;2.38;;;;;;;15.35;61.34;97680.47;4987459;28;20113;-61
2022/07/19 02:36:59;;;;;;;4.00;2.33;;;;;;;15.36;61.10;97682.09;4967829;28;20049;-61
2022/07/19 02:39:26;;;;;;;5.55;2.47;;;;;;;15.31;61.41;97682.13;4981042;28;20464;-62
2022/07/19 02:41:52;;;;;;;4.68;2.38;;;;;;;15.42;60.84;97678.28;4987390;28;20046;-61
2022/07/19 02:44:19;;;;;;;5.13;2.33;;;;;;;15.59;60.21;97682.63;4986515;28;20117;-61
2022/07/19 02:46:45;;;;;;;5.40;2.58;;;;;;;15.64;60.16;97670.84;4987390;28;20053;-61
2022/07/19 02:49:12;;;;;;;7.85;2.60;;;;;;;15.56;60.81;97672.25;4987117;28;20050;-61
2022/07/19 02:51:38;;;;;;;3.45;2.30;;;;;;;15.09;63.03;97672.34;4987268;28;20054;-61
2022/07/19 02:54:05;;;;;;;6.43;2.50;;;;;;;14.73;64.42;97666.84;4987233;28;20039;-61
2022/07/19 02:56:31;;;;;;;4.10;2.35;;;;;;;14.84;63.46;97671.25;4985873;28;20124;-61
2022/07/19 02:58:58;;;;;;;5.32;2.95;;;;;;;15.27;61.26;97665.50;4987976;28;20065;-62
2022/07/19 03:01:24;;;;;;;4.47;2.30;;;;;;;15.58;59.94;97670.03;4985946;28;20057;-62
2022/07/19 03:03:51;;;;;;;5.50;2.67;;;;;;;15.83;58.89;97668.31;4986703;28;20034;-62
2022/07/19 03:06:18;;;;;;;5.45;2.60;;;;;;;15.89;58.73;97661.75;4986768;28;20062;-61
2022/07/19 03:08:45;;;;;;;3.70;2.17;;;;;;;16.04;57.97;97658.19;4986473;28;20042;-61
2022/07/19 03:11:13;;;;;;;4.82;2.40;;;;;;;16.11;57.68;97661.41;4987351;28;20524;-62
2022/07/19 03:13:40;;;;;;;4.32;2.30;;;;;;;16.16;57.52;97657.84;4986724;28;20493;-63
2022/07/19 03:16:07;;;;;;;7.47;2.85;;;;;;;16.14;57.66;97661.94;4986383;28;20453;-62
2022/07/19 03:18:34;;;;;;;7.25;2.78;;;;;;;16.15;57.68;97663.56;4987138;28;20493;-62
2022/07/19 03:21:01;;;;;;;6.32;2.47;;;;;;;16.10;57.90;97664.41;4986027;28;20072;-62
2022/07/19 03:23:31;;;;;;;5.40;2.45;;;;;;;16.15;57.51;97663.56;4986419;28;20048;-62
2022/07/19 03:25:58;;;;;;;4.38;2.25;;;;;;;16.21;57.12;97657.78;4986208;28;20105;-62
2022/07/19 03:28:25;;;;;;;6.78;2.50;;;;;;;16.21;57.13;97659.69;4986118;28;20457;-62
2022/07/19 03:30:51;;;;;;;3.80;2.20;;;;;;;16.12;57.70;97654.84;4985860;28;20050;-56
2022/07/19 03:33:18;;;;;;;6.03;2.60;;;;;;;16.09;57.96;97660.88;4984349;28;20165;-54
2022/07/19 03:35:46;;;;;;;6.78;2.90;;;;;;;16.16;57.38;97655.09;4984575;28;20465;-55
2022/07/19 03:38:15;;;;;;;3.97;2.53;;;;;;;16.21;57.17;97654.25;4982631;28;20414;-53
2022/07/19 03:40:42;;;;;;;5.00;2.50;;;;;;;16.14;57.47;97660.00;4984093;28;20053;-53
2022/07/19 03:43:08;;;;;;;6.15;2.50;;;;;;;16.14;58.13;97659.22;4984107;28;20433;-53
2022/07/19 03:45:35;;;;;;;8.65;2.70;;;;;;;16.19;57.54;97661.91;4983014;28;20050;-54
2022/07/19 03:48:01;;;;;;;3.63;2.20;;;;;;;16.25;57.24;97655.31;4984755;28;20046;-53
2022/07/19 03:50:28;;;;;;;4.82;2.47;;;;;;;16.31;57.05;97661.56;4984052;28;20050;-52
2022/07/19 03:52:55;;;;;;;4.72;2.30;;;;;;;16.36;56.98;97658.78;4984380;28;20042;-55
2022/07/19 03:55:21;;;;;;;6.22;2.50;;;;;;;16.47;57.06;97660.38;4983877;28;20042;-53
2022/07/19 03:57:48;;;;;;;6.85;3.05;;;;;;;16.61;55.98;97662.47;4984008;28;20057;-52
2022/07/19 04:00:14;;;;;;;4.40;2.25;;;;;;;16.64;55.85;97661.91;4984065;28;20046;-55
2022/07/19 04:02:41;;;;;;;4.90;2.63;;;;;;;16.63;56.09;97663.00;4983835;28;20053;-55
2022/07/19 04:05:09;;;;;;;6.00;2.92;;;;;;;16.66;56.11;97662.41;4984067;28;20050;-55
2022/07/19 04:07:36;;;;;;;3.92;2.28;;;;;;;16.71;55.80;97664.31;4971241;28;20506;-55
2022/07/19 04:10:03;;;;;;;4.80;2.55;;;;;;;16.78;55.71;97665.59;4983872;28;20046;-50
2022/07/19 04:12:29;;;;;;;6.07;2.35;;;;;;;16.84;55.82;97669.13;4984576;28;20050;-56
2022/07/19 04:14:56;;;;;;;4.53;2.28;;;;;;;16.89;55.48;97668.28;4984228;28;20572;-55
2022/07/19 04:17:23;;;;;;;6.07;2.03;;;;;;;16.93;55.29;97672.06;4986648;28;20042;-56
2022/07/19 04:19:50;;;;;;;4.65;2.42;;;;;;;16.97;55.38;97673.13;4988282;28;20577;-52
2022/07/19 04:22:17;;;;;;;6.97;2.88;;;;;;;16.89;55.49;97685.47;4985647;28;20072;-55
2022/07/19 04:24:44;;;;;;;3.30;2.03;;;;;;;16.96;55.58;97676.16;4988582;28;20057;-56
2022/07/19 04:27:10;;;;;;;5.70;3.33;;;;;;;16.96;55.82;97674.25;4989141;28;20061;-55
2022/07/19 04:29:37;;;;;;;5.35;3.00;;;;;;;16.98;56.31;97674.75;4989082;28;20039;-55
2022/07/19 04:32:04;;;;;;;3.83;2.38;;;;;;;16.95;56.65;97675.31;4989962;28;20105;-56
2022/07/19 04:34:31;;;;;;;5.80;2.60;;;;;;;16.93;56.96;97687.66;4989528;28;20046;-55
2022/07/19 04:36:57;;;;;;;4.20;2.80;;;;;;;16.69;57.92;97681.00;4984321;28;20391;-55
2022/07/19 04:39:24;;;;;;;5.88;2.35;;;;;;;16.71;57.42;97684.28;4985289;28;20073;-53
2022/07/19 04:41:50;;;;;;;4.72;2.47;;;;;;;16.70;57.78;97681.81;4984833;28;20038;-54
2022/07/19 04:44:17;;;;;;;6.43;2.53;;;;;;;16.74;57.56;97686.41;4987132;28;20042;-55
2022/07/19 04:46:43;;;;;;;3.80;2.30;;;;;;;16.84;57.62;97679.25;4986770;28;20050;-56
2022/07/19 04:49:13;;;;;;;4.57;2.78;;;;;;;16.87;58.20;97679.50;4986977;28;20046;-53
2022/07/19 04:51:40;;;;;;;4.70;2.40;;;;;;;16.83;59.18;97688.53;4986219;28;20054;-53
2022/07/19 04:54:06;;;;;;;6.28;2.65;;;;;;;16.80;59.70;97683.66;4972582;28;20051;-53
2022/07/19 04:56:33;;;;;;;4.90;2.10;;;;;;;16.83;58.63;97677.59;4986941;28;20054;-52
2022/07/19 04:58:59;;;;;;;5.77;2.30;;;;;;;16.98;58.64;97676.66;4987233;28;20060;-52
2022/07/19 05:01:26;;;;;;;5.70;2.28;;;;;;;17.03;58.16;97676.66;4984911;28;20042;-69
2022/07/19 05:03:52;;;;;;;5.78;2.13;;;;;;;17.12;58.66;97680.41;4987475;28;20618;-69
2022/07/19 05:06:19;;;;;;;4.50;2.03;;;;;;;17.05;59.22;97676.34;4984421;28;20084;-70
2022/07/19 05:08:46;;;;;;;6.30;2.38;;;;;;;17.20;58.51;97676.22;4984964;28;20108;-70
2022/07/19 05:11:12;;;;;;;5.07;2.53;;;;;;;17.31;59.08;97679.69;4986861;28;20049;-68
2022/07/19 05:13:39;;;;;;;4.22;2.10;;;;;;;17.33;59.70;97669.28;4986792;28;20050;-70
2022/07/19 05:16:05;;;;;;;4.75;2.13;;;;;;;17.42;59.36;97678.50;4987130;28;20077;-71
2022/07/19 05:18:32;;;;;;;4.90;2.60;;;;;;;17.58;58.30;97678.31;4986546;28;20085;-68
2022/07/19 05:20:59;;;;;;;5.05;2.30;;;;;;;17.69;58.26;97681.75;4987073;28;20042;-72
2022/07/19 05:23:25;;;;;;;3.72;2.17;;;;;;;17.79;58.15;97678.09;4988111;28;20053;-69
2022/07/19 05:25:52;;;;;;;7.88;2.85;;;;;;;17.93;57.29;97676.28;4984311;28;20038;-70
2022/07/19 05:28:18;;;;;;;6.57;2.35;;;;;;;18.02;58.59;97679.16;4985386;28;20101;-69
2022/07/19 05:30:45;;;;;;;5.03;2.20;;;;;;;18.04;58.94;97676.13;4985706;28;20057;-69
2022/07/19 05:33:12;;;;;;;5.65;2.38;;;;;;;18.19;57.33;97675.16;4987229;28;20038;-70
2022/07/19 05:35:38;;;;;;;7.88;2.50;;;;;;;18.32;56.59;97676.38;4986580;28;20398;-70
2022/07/19 05:38:05;;;;;;;9.07;2.63;;;;;;;18.45;56.56;97672.88;4987127;28;20046;-68
2022/07/19 05:40:35;;;;;;;5.60;2.33;;;;;;;18.58;56.71;97673.25;4986489;28;20417;-69
2022/07/19 05:43:02;;;;;;;7.35;2.60;;;;;;;18.73;59.05;97669.47;4984207;28;20049;-70
2022/07/19 05:45:28;;;;;;;5.68;2.47;;;;;;;18.86;57.25;97681.59;4986130;28;20046;-71
2022/07/19 05:47:55;;;;;;;6.97;2.78;;;;;;;19.12;58.29;97669.41;4986805;28;20065;-68
2022/07/19 05:50:21;;;;;;;7.57;2.45;;;;;;;19.26;59.36;97675.72;4981969;28;20054;-68
2022/07/19 05:52:48;;;;;;;4.82;2.20;;;;;;;19.36;57.47;97672.78;4973303;28;20047;-71
2022/07/19 05:55:14;;;;;;;7.38;2.50;;;;;;;19.34;56.87;97679.72;4975497;28;20042;-71
2022/07/19 05:57:41;;;;;;;6.28;2.47;;;;;;;19.35;56.31;97682.16;4977956;28;20354;-70
2022/07/19 06:00:08;;;;;;;5.82;2.50;;;;;;;19.43;56.57;97679.84;4978158;28;20046;-68
2022/07/19 06:02:37;;;;;;;4.88;2.30;;;;;;;19.56;56.89;97669.97;4977969;28;20054;-69
2022/07/19 06:05:04;;;;;;;7.20;2.35;;;;;;;19.74;56.55;97676.50;4979917;28;20507;-72
2022/07/19 06:07:31;;;;;;;3.65;2.15;;;;;;;19.81;53.92;97673.34;4983710;28;20054;-69
2022/07/19 06:09:57;;;;;;;4.00;2.00;;;;;;;19.94;53.84;97679.97;4979326;28;20038;-71
2022/07/19 06:12:24;;;;;;;5.35;2.00;;;;;;;20.07;53.43;97678.34;4982042;28;20057;-68
2022/07/19 06:14:50;;;;;;;5.50;2.55;;;;;;;20.19;53.77;97686.09;4976867;28;20038;-66
2022/07/19 06:17:17;;;;;;;8.02;2.42;;;;;;;20.33;53.97;97684.09;4980180;28;20046;-69
2022/07/19 06:19:44;;;;;;;3.42;2.20;;;;;;;20.52;52.71;97683.97;4970670;28;20038;-66
2022/07/19 06:22:10;;;;;;;5.32;2.10;;;;;;;20.86;50.26;97687.28;4978489;28;20104;-70
2022/07/19 06:24:37;;;;;;;3.53;1.88;;;;;;;21.33;47.72;97677.91;4986995;28;20046;-69
2022/07/19 06:27:03;;;;;;;5.30;2.33;;;;;;;21.81;45.65;97672.78;4987432;28;20043;-67
2022/07/19 06:29:30;;;;;;;6.65;1.92;;;;;;;22.24;44.92;97670.47;4987949;28;20113;-70
2022/07/19 06:31:56;;;;;;;3.75;1.73;;;;;;;22.45;43.95;97676.19;4981135;28;20042;-69
2022/07/19 06:34:23;;;;;;;3.78;1.70;;;;;;;22.51;43.47;97674.09;4984455;28;20514;-69
2022/07/19 06:36:49;;;;;;;2.67;1.70;;;;;;;22.67;42.61;97675.22;4985236;28;20046;-69
2022/07/19 06:39:16;;;;;;;4.25;1.95;;;;;;;22.73;42.58;97673.13;4985130;28;20058;-68
2022/07/19 06:41:42;;;;;;;5.43;2.33;;;;;;;22.98;41.09;97673.44;4985780;28;20054;-66
2022/07/19 06:44:17;;;;;;;5.00;2.47;;;;;;;23.10;40.56;97673.59;4982865;28;20074;-69
2022/07/19 06:46:44;;;;;;;4.10;2.30;;;;;;;23.53;40.04;97679.34;4981638;28;20049;-70
2022/07/19 06:49:19;;;;;;;3.40;1.75;;;;;;;23.61;39.34;97672.97;4985078;28;20042;-75
2022/07/19 06:51:46;;;;;;;3.45;1.80;;;;;;;23.57;39.53;97673.97;4983565;28;20042;-69
2022/07/19 06:54:12;;;;;;;2.90;1.70;;;;;;;23.75;38.77;97666.41;4983847;28;20050;-74
2022/07/19 06:56:39;;;;;;;6.07;1.75;;;;;;;23.67;39.32;97670.84;4984213;28;20061;-68
2022/07/19 06:59:05;;;;;;;8.30;2.65;;;;;;;23.76;38.49;97670.78;4982101;28;20066;-69
2022/07/19 07:01:32;;;;;;;6.57;2.10;;;;;;;23.75;38.54;97670.00;4981285;28;20132;-68
2022/07/19 07:03:59;;;;;;;6.68;2.17;;;;;;;23.90;38.61;97670.56;4985122;28;20039;-70
2022/07/19 07:06:25;;;;;;;6.43;2.17;;;;;;;24.12;37.54;97663.16;4976939;28;20072;-68
2022/07/19 07:08:52;;;;;;;4.97;1.90;;;;;;;24.19;37.40;97663.44;4976001;28;20050;-66
2022/07/19 07:11:18;;;;;;;3.78;1.98;;;;;;;24.16;37.69;97670.47;4986417;28;20057;-68
2022/07/19 07:13:45;;;;;;;10.13;3.67;;;;;;;24.18;37.61;97672.91;4985701;28;20375;-72
2022/07/19 07:16:12;;;;;;;6.57;2.00;;;;;;;24.76;36.74;97668.72;4985380;28;20046;-74
2022/07/19 07:18:38;;;;;;;6.35;2.40;;;;;;;25.17;36.71;97661.50;4984578;28;20513;-73
2022/07/19 07:21:05;;;;;;;8.82;2.15;;;;;;;25.31;35.85;97666.75;4979966;28;20045;-72
2022/07/19 07:23:32;;;;;;;4.47;1.98;;;;;;;25.40;36.41;97674.16;4981500;28;20236;-70
2022/07/19 07:25:59;;;;;;;4.22;2.13;;;;;;;25.44;36.00;97664.81;4977792;28;20547;-70
2022/07/19 07:28:25;;;;;;;7.30;2.30;;;;;;;25.37;36.62;97666.50;4983470;28;20049;-70
2022/07/19 07:30:53;;;;;;;8.10;2.40;;;;;;;25.49;36.55;97669.31;4983712;28;20061;-69
2022/07/19 07:33:20;;;;;;;6.80;2.13;;;;;;;25.51;35.89;97660.66;4981534;28;20445;-68
2022/07/19 07:35:46;;;;;;;3.95;2.22;;;;;;;25.95;35.32;97663.69;4984566;28;20098;-67
2022/07/19 07:38:14;;;;;;;5.47;1.98;;;;;;;25.94;34.45;97652.97;4985919;28;20046;-71
2022/07/19 07:40:42;;;;;;;5.68;2.00;;;;;;;25.86;34.55;97660.25;4985367;28;20057;-68
2022/07/19 07:43:09;;;;;;;9.43;2.28;;;;;;;25.82;35.62;97656.53;4985755;28;20056;-68
2022/07/19 07:45:36;;;;;;;4.55;1.88;;;;;;;25.79;34.89;97652.50;4981368;28;20050;-68
2022/07/19 07:48:02;;;;;;;4.47;1.80;;;;;;;25.71;35.66;97657.00;4983539;28;20046;-70
2022/07/19 07:50:31;;;;;;;4.32;1.65;;;;;;;25.89;35.60;97650.41;4982085;28;20053;-69
2022/07/19 07:52:57;;;;;;;9.82;2.25;;;;;;;26.04;35.03;97648.91;4983402;28;20045;-68
2022/07/19 07:55:24;;;;;;;6.32;1.80;;;;;;;26.45;32.84;97654.53;4983593;28;20065;-69
2022/07/19 07:57:55;;;;;;;6.15;2.17;;;;;;;26.81;32.55;97649.19;4983339;28;20050;-69
2022/07/19 08:00:22;;;;;;;4.32;2.20;;;;;;;26.95;32.09;97649.66;4983012;28;20046;-68
2022/07/19 08:02:49;;;;;;;3.58;1.75;;;;;;;27.01;32.23;97652.94;4983266;28;20050;-68
2022/07/19 08:05:21;;;;;;;5.47;1.52;;;;;;;27.05;30.60;97648.31;4982818;28;20050;-70
2022/07/19 08:07:48;;;;;;;5.95;2.00;;;;;;;27.39;28.89;97645.22;4982887;28;20116;-68
2022/07/19 08:10:20;;;;;;;5.05;1.60;;;;;;;27.49;28.26;97652.22;4980875;28;20097;-65
2022/07/19 08:12:46;;;;;;;5.43;1.63;;;;;;;27.55;27.43;97655.53;4980327;28;20065;-69
2022/07/19 08:15:13;;;;;;;4.40;1.60;;;;;;;27.52;27.87;97648.72;4981356;28;20046;-70
2022/07/19 08:17:40;;;;;;;3.97;1.67;;;;;;;27.74;27.29;97658.44;4977395;28;20054;-70
2022/07/19 08:20:08;;;;;;;7.63;1.75;;;;;;;27.91;27.10;97654.50;4980926;28;20050;-73
2022/07/19 08:22:34;;;;;;;5.07;1.65;;;;;;;27.92;27.06;97650.53;4983360;28;20046;-71
2022/07/19 08:25:01;;;;;;;5.28;2.25;;;;;;;27.92;27.01;97650.53;4981469;28;20035;-70
2022/07/19 08:27:27;;;;;;;6.18;1.65;;;;;;;27.87;27.36;97638.88;4975642;28;20058;-70
2022/07/19 08:29:54;;;;;;;2.72;1.65;;;;;;;27.91;27.51;97632.22;4982562;28;20326;-70
2022/07/19 08:32:21;;;;;;;6.45;1.77;;;;;;;28.04;26.67;97626.53;4983862;28;20193;-69
2022/07/19 08:34:47;;;;;;;7.70;1.50;;;;;;;28.19;26.45;97641.56;4979830;28;20536;-74
2022/07/19 08:37:14;;;;;;;3.78;1.58;;;;;;;28.27;26.77;97635.03;4981747;28;20042;-70
2022/07/19 08:39:41;;;;;;;2.72;1.33;;;;;;;28.42;26.66;97638.13;4982194;28;20433;-70
2022/07/19 08:42:09;;;;;;;5.13;1.60;;;;;;;28.50;26.32;97639.91;4981598;28;20046;-71
2022/07/19 08:44:39;;;;;;;5.78;1.70;;;;;;;28.57;26.32;97639.25;4983142;28;20050;-68
2022/07/19 08:47:06;;;;;;;3.67;1.52;;;;;;;28.56;26.03;97640.44;4974385;28;20076;-70
2022/07/19 08:49:33;;;;;;;3.50;1.25;;;;;;;28.74;26.48;97635.19;4982066;28;20058;-68
2022/07/19 08:52:00;;;;;;;6.68;1.70;;;;;;;28.78;25.38;97635.28;4977265;28;20215;-70
2022/07/19 08:54:26;;;;;;;4.93;1.92;;;;;;;28.89;24.94;97635.50;4989760;28;20496;-69
2022/07/19 08:59:46;;;;;;;2.30;1.33;;;;;;;29.02;24.17;97641.72;4983696;28;20042;-71
2022/07/19 09:02:12;;;;;;;4.60;1.73;;;;;;;28.95;24.46;97632.06;4984354;28;20057;-69
2022/07/19 09:04:39;;;;;;;2.78;1.50;;;;;;;29.01;24.86;97640.13;4988324;28;20054;-68
2022/07/19 09:07:06;;;;;;;4.40;1.65;;;;;;;29.20;24.64;97630.94;4984379;28;20314;-69
2022/07/19 09:09:35;;;;;;;6.25;1.50;;;;;;;29.30;24.37;97635.09;4985109;28;20072;-68
2022/07/19 09:12:04;;;;;;;3.30;1.70;;;;;;;29.29;24.33;97642.63;4988572;28;20042;-70
2022/07/19 09:14:33;;;;;;;2.92;1.45;;;;;;;29.25;24.42;97638.97;4982804;28;20053;-70
2022/07/19 09:17:01;;;;;;;3.78;1.48;;;;;;;29.19;24.84;97643.25;4985180;28;20065;-69
2022/07/19 09:19:35;;;;;;;3.15;1.60;;;;;;;29.26;24.04;97642.59;4986928;28;20121;-70
2022/07/19 09:22:05;;;;;;;2.92;1.40;;;;;;;29.33;24.46;97637.94;4985950;28;20035;-70
2022/07/19 09:24:34;;;;;;;6.50;1.60;;;;;;;29.37;24.55;97637.97;4984548;28;20117;-72
2022/07/19 09:27:13;;;;;;;;;;;;;;;29.50;24.56;97633.03;4985781;28;20081;-79
2022/07/19 09:29:43;;;;;;;3.72;1.10;;;;;;;29.47;24.77;97626.22;4976861;28;19929;-72
2022/07/19 09:32:12;;;;;;;4.88;1.75;;;;;;;29.64;24.48;97629.72;4986791;28;20057;-70
2022/07/19 09:34:41;;;;;;;7.38;1.90;;;;;;;29.71;23.98;97632.59;4981571;28;20050;-71
2022/07/19 09:37:18;;;;;;;4.18;1.60;;;;;;;29.59;24.58;97621.66;4986262;28;20046;-70
2022/07/19 09:39:48;;;;;;;3.72;1.38;;;;;;;29.68;24.27;97629.75;4985801;28;20042;-70
2022/07/19 09:42:20;;;;;;;3.85;1.58;;;;;;;29.81;24.03;97622.00;4984941;28;20050;-71
2022/07/19 09:44:57;;;;;;;4.40;1.60;;;;;;;29.83;24.20;97622.44;4986336;28;20043;-73
2022/07/19 09:47:43;;;;;;;3.95;1.63;;;;;;;29.93;24.54;97627.38;4986266;28;20034;-68
2022/07/19 09:50:18;;;;;;;6.20;2.30;;;;;;;30.04;23.59;97618.34;4980767;28;20041;-73
2022/07/19 09:52:47;;;;;;;4.75;1.70;;;;;;;30.17;23.83;97632.91;4986830;28;20046;-75
2022/07/19 09:55:16;;;;;;;6.80;1.75;;;;;;;30.14;24.11;97620.50;4987397;28;20041;-68
2022/07/19 09:57:45;;;;;;;6.43;1.88;;;;;;;30.10;23.61;97630.78;4987678;28;20042;-69
2022/07/19 10:00:14;;;;;;;5.28;1.67;;;;;;;30.27;23.79;97617.50;4982451;28;20045;-68
2022/07/19 10:02:43;;;;;;;5.00;2.00;;;;;;;30.25;23.86;97629.03;4987643;28;20046;-66
2022/07/19 10:05:12;;;;;;;8.57;1.77;;;;;;;30.28;23.93;97624.72;4984960;28;20046;-71
2022/07/19 10:07:40;;;;;;;8.50;1.88;;;;;;;30.16;23.92;97618.16;4983193;28;20050;-71
2022/07/19 10:10:11;;;;;;;5.70;1.80;;;;;;;30.18;24.18;97623.38;4987799;28;20404;-67
2022/07/19 10:12:43;;;;;;;4.50;1.63;;;;;;;30.23;23.30;97618.28;4987051;28;20046;-70
2022/07/19 10:15:13;;;;;;;5.97;1.75;;;;;;;30.32;23.34;97623.56;4985689;28;20069;-70
2022/07/19 10:17:58;;;;;;;6.10;1.80;;;;;;;30.53;23.35;97618.63;4986631;28;20035;-67
2022/07/19 10:20:26;;;;;;;5.40;2.08;;;;;;;30.42;24.08;97619.31;4978838;28;20046;-72
2022/07/19 10:22:57;;;;;;;5.55;1.83;;;;;;;30.49;23.21;97608.22;4982814;28;20050;-70
2022/07/19 10:25:24;;;;;;;4.63;1.60;;;;;;;30.62;22.55;97608.75;4985205;28;20042;-73
2022/07/19 10:27:54;;;;;;;6.07;1.70;;;;;;;30.84;21.81;97600.66;4981494;28;20054;-73
2022/07/19 10:30:40;;;;;;;4.55;1.90;;;;;;;30.74;22.52;97602.13;4973139;28;20056;-71
2022/07/19 10:33:37;;;;;;;5.05;1.80;;;;;;;30.89;22.27;97602.31;4982377;28;20076;-70
2022/07/19 10:36:32;;;;;;;6.95;1.83;;;;;;;30.92;22.42;97598.75;4984578;28;20049;-71
2022/07/19 10:39:38;;;;;;;4.22;2.08;;;;;;;31.07;21.49;97594.13;4984510;28;20450;-71
2022/07/19 10:42:19;;;;;;;4.70;1.83;;;;;;;31.09;21.79;97594.53;4974174;28;20152;-69
2022/07/19 10:44:55;;;;;;;3.45;1.63;;;;;;;31.10;22.01;97587.75;4984686;28;20413;-69
2022/07/19 10:47:22;;;;;;;7.05;1.80;;;;;;;31.18;21.26;97585.00;4983844;28;20046;-69
2022/07/19 10:49:49;;;;;;;5.30;1.75;;;;;;;31.14;21.76;97579.41;4979471;28;20076;-71
2022/07/19 10:52:27;;;;;;;4.55;2.00;;;;;;;31.30;21.56;97581.13;4983712;28;20053;-70
2022/07/19 10:55:20;;;;;;;6.07;2.20;;;;;;;31.30;21.94;97570.75;4984726;28;20046;-69
2022/07/19 10:57:59;;;;;;;4.63;2.10;;;;;;;31.33;21.78;97569.19;4984021;28;20050;-72
2022/07/19 11:00:28;;;;;;;3.85;1.67;;;;;;;31.52;21.66;97573.75;4984063;28;21562;-71
2022/07/19 11:03:20;;;;;;;4.15;1.90;;;;;;;31.51;21.64;97570.13;4979871;28;20482;-72
2022/07/19 11:05:57;;;;;;;8.10;2.25;;;;;;;31.62;21.26;97561.03;4982665;28;20421;-70
2022/07/19 11:08:36;;;;;;;5.88;2.00;;;;;;;31.79;21.28;97562.34;4982591;28;20050;-69
2022/07/19 11:11:06;;;;;;;4.80;2.10;;;;;;;32.03;21.24;97551.72;4979311;28;20050;-69
2022/07/19 11:13:34;;;;;;;;;;;;;;;31.95;21.37;97559.28;4980440;28;20112;-72
2022/07/19 11:16:02;;;;;;;4.60;2.05;;;;;;;31.91;21.19;97552.84;4983766;28;19925;-69
2022/07/19 11:18:30;;;;;;;4.60;2.03;;;;;;;31.80;21.29;97558.34;4983896;28;20411;-72
2022/07/19 11:20:58;;;;;;;6.05;1.95;;;;;;;32.21;20.36;97560.22;4976593;28;20058;-69
2022/07/19 11:23:29;;;;;;;5.53;2.10;;;;;;;32.10;20.21;97553.75;4986748;28;20041;-69
2022/07/19 11:26:09;;;;;;;4.88;1.65;;;;;;;32.13;20.01;97558.56;4983237;28;20046;-67
2022/07/19 11:28:37;;;;;;;8.38;2.15;;;;;;;32.30;19.88;97552.25;4983676;28;20514;-69
2022/07/19 11:31:20;;;;;;;4.25;1.63;;;;;;;32.32;19.58;97546.25;4980964;28;20077;-70
2022/07/19 11:33:49;;;;;;;4.97;2.08;;;;;;;32.26;19.95;97537.41;4978116;28;20052;-70
2022/07/19 11:36:17;;;;;;;7.43;2.25;;;;;;;32.02;20.72;97528.50;4982934;28;20049;-70
2022/07/19 11:38:48;;;;;;;4.47;1.65;;;;;;;31.73;20.85;97524.72;4983538;28;20057;-69
2022/07/19 11:41:26;;;;;;;10.73;2.15;;;;;;;31.73;21.00;97516.31;4984281;28;20101;-68
2022/07/19 11:43:59;;;;;;;7.00;1.63;;;;;;;32.01;21.13;97509.28;4982463;28;20083;-68